Baitag, Mongolia
Current Conditions -  °F | °C
As of 2:30 PM on Wednesday 26 Nov 2014 (Local Time) from ZWWW Reporting Station
Few Clouds Few Clouds  
Wind Chill: 17°   Ceiling: Unl
Heat Index: 23°   Visibility: 6mi
Dew Point: 18°   Wind: 4mph
Humidity: 80%   Direction: 330°NNW
Pressure: 30.42"   Gusts: NA
Location:  46.12°N, 91.47°E
Report Text: ZWWW 260630Z 33002MPS 290V360 9999 FEW011 M05/M08 Q1030 NOSIG
Loading
Personal Weather Stations






























Interactive Weather Map New forecast layout! Learn more

10-Day Weather Forecast

Advertisements
Track Severe Weather on mobile